Craig, Montana
Current Conditions -  °F | °C
As of 7:15 PM on Wednesday 26 Nov 2014 (Local Time) from KHLN Reporting Station
Haze Haze  
Wind Chill: 28°   Ceiling: Unl
Heat Index: 28°   Visibility: 3mi
Dew Point: 26°   Wind: 3mph
Humidity: 92%   Direction: 240°WSW
Pressure: 30.1"   Gusts: NA
Location:  46.9762°N, 111.977°W
Report Text: KHLN 270215Z 24003KT 3SM BR CLR M02/M03 A3010 RMK AO2 T10221033
Loading
Personal Weather Stations






























Interactive Weather Map New forecast layout! Learn more

10-Day Weather Forecast

Advertisements
Track Severe Weather on mobile